Time;durP1;ratioP1;P1;durP2;ratioP2;P2;SDS_P1;SDS_P2;PMS_P1;PMS_P2;Temp;Humidity;BMP_temperature;BMP_pressure;BME280_temperature;BME280_humidity;BME280_pressure;Samples;Min_cycle;Max_cycle;Signal;HPM_P1;HPM_P2
2022/07/04 00:00:16;;;;;;;4.88;1.40;;;;;;;-145.67;100.00;66521.78;4992113;28;20374;-77
2022/07/04 00:02:43;;;;;;;6.80;1.45;;;;;;;-145.67;100.00;66521.78;5001416;28;20132;-76
2022/07/04 00:05:11;;;;;;;7.95;1.58;;;;;;;-145.67;100.00;66521.78;5004503;28;21656;-76
2022/07/04 00:07:40;;;;;;;7.85;1.70;;;;;;;-145.67;100.00;66521.78;5015607;28;20045;-75
2022/07/04 00:10:08;;;;;;;8.00;1.70;;;;;;;-145.67;100.00;66521.78;5003693;28;20056;-76
2022/07/04 00:12:33;;;;;;;8.13;1.88;;;;;;;-145.67;100.00;66521.78;4991033;28;20420;-76
2022/07/04 00:14:59;;;;;;;6.07;1.50;;;;;;;-145.67;100.00;66521.78;5005852;28;20030;-76
2022/07/04 00:17:24;;;;;;;5.85;1.60;;;;;;;-145.67;100.00;66521.78;5003841;28;20092;-75
2022/07/04 00:19:50;;;;;;;9.18;1.60;;;;;;;-145.67;100.00;66521.78;5001716;28;20524;-76
2022/07/04 00:22:15;;;;;;;7.43;1.60;;;;;;;-145.67;100.00;66521.78;4986311;28;20033;-76
2022/07/04 00:24:41;;;;;;;11.50;1.70;;;;;;;-145.67;100.00;66521.78;5002586;28;20053;-75
2022/07/04 00:27:06;;;;;;;7.00;1.58;;;;;;;-145.67;100.00;66521.78;5007364;28;20030;-76
2022/07/04 00:29:32;;;;;;;11.48;1.80;;;;;;;-145.67;100.00;66521.78;5003057;28;20040;-76
2022/07/04 00:31:58;;;;;;;11.20;1.92;;;;;;;-145.67;100.00;66521.78;5001753;28;20591;-76
2022/07/04 00:34:24;;;;;;;8.43;1.73;;;;;;;-145.67;100.00;66521.78;5016320;28;20397;-76
2022/07/04 00:36:50;;;;;;;8.13;1.80;;;;;;;-145.67;100.00;66521.78;5015212;28;20132;-76
2022/07/04 00:39:15;;;;;;;8.98;1.60;;;;;;;-145.67;100.00;66521.78;5001141;28;20061;-76
2022/07/04 00:41:40;;;;;;;7.68;1.60;;;;;;;-145.67;100.00;66521.78;5002850;28;22479;-74
2022/07/04 00:44:09;;;;;;;7.90;1.88;;;;;;;-145.67;100.00;66521.78;5001932;28;20034;-76
2022/07/04 00:46:35;;;;;;;10.05;1.98;;;;;;;-145.67;100.00;66521.78;4976414;28;20104;-76
2022/07/04 00:49:03;;;;;;;7.15;1.60;;;;;;;-145.67;100.00;66521.78;5002608;28;20100;-76
2022/07/04 00:51:29;;;;;;;5.22;1.50;;;;;;;-145.67;100.00;66521.78;5001995;28;20115;-75
2022/07/04 00:53:55;;;;;;;8.18;2.03;;;;;;;-145.67;100.00;66521.78;5000444;28;20028;-76
2022/07/04 00:56:22;;;;;;;7.68;1.85;;;;;;;-145.67;100.00;66521.78;4989489;28;20497;-76
2022/07/04 00:58:48;;;;;;;7.65;1.50;;;;;;;-145.67;100.00;66521.78;4999625;28;21233;-77
2022/07/04 01:01:13;;;;;;;8.05;1.85;;;;;;;-145.67;100.00;66521.78;5005706;28;20033;-77
2022/07/04 01:03:39;;;;;;;10.02;1.75;;;;;;;-145.67;100.00;66521.78;4986369;28;20034;-77
2022/07/04 01:06:08;;;;;;;7.45;1.67;;;;;;;-145.67;100.00;66521.78;4998546;28;20049;-76
2022/07/04 01:08:38;;;;;;;7.78;1.48;;;;;;;-145.67;100.00;66521.78;5015519;28;20660;-75
2022/07/04 01:11:03;;;;;;;7.97;1.70;;;;;;;-145.67;100.00;66521.78;4998916;28;20524;-76
2022/07/04 01:13:29;;;;;;;8.50;1.90;;;;;;;-145.67;100.00;66521.78;5000321;28;20154;-76
2022/07/04 01:15:57;;;;;;;7.55;1.70;;;;;;;-145.67;100.00;66521.78;5000041;28;20431;-77
2022/07/04 01:18:23;;;;;;;11.15;1.70;;;;;;;-145.67;100.00;66521.78;5002169;28;20076;-76
2022/07/04 01:20:49;;;;;;;8.68;1.70;;;;;;;-145.67;100.00;66521.78;4999947;28;20037;-75
2022/07/04 01:23:14;;;;;;;9.68;2.20;;;;;;;-145.67;100.00;66521.78;5002470;28;20134;-76
2022/07/04 01:25:39;;;;;;;6.82;1.95;;;;;;;-145.67;100.00;66521.78;5000231;28;20046;-75
2022/07/04 01:28:07;;;;;;;8.57;2.17;;;;;;;-145.67;100.00;66521.78;5001174;28;20090;-77
2022/07/04 01:30:33;;;;;;;8.52;2.20;;;;;;;-145.67;100.00;66521.78;4999629;28;21839;-75
2022/07/04 01:32:59;;;;;;;6.68;1.80;;;;;;;-145.67;100.00;66521.78;5017197;28;20461;-75
2022/07/04 01:35:25;;;;;;;8.50;1.90;;;;;;;-145.67;100.00;66521.78;5002391;28;20146;-76
2022/07/04 01:37:53;;;;;;;9.07;2.15;;;;;;;-145.67;100.00;66521.78;5015510;28;20038;-77
2022/07/04 01:40:18;;;;;;;9.70;1.90;;;;;;;-145.67;100.00;66521.78;5015431;28;20521;-77
2022/07/04 01:42:44;;;;;;;10.07;2.22;;;;;;;-145.67;100.00;66521.78;5002142;28;20030;-76
2022/07/04 01:45:12;;;;;;;10.40;2.10;;;;;;;-145.67;100.00;66521.78;5005289;28;21666;-77
2022/07/04 01:47:39;;;;;;;11.38;1.95;;;;;;;-145.67;100.00;66521.78;5004597;28;20064;-77
2022/07/04 01:50:08;;;;;;;10.32;2.60;;;;;;;-145.67;100.00;66521.78;5016803;28;20033;-75
2022/07/04 01:52:34;;;;;;;8.52;1.98;;;;;;;-145.67;100.00;66521.78;4986765;28;20145;-77
2022/07/04 01:55:00;;;;;;;10.85;2.15;;;;;;;-145.67;100.00;66521.78;5005485;28;20474;-76
2022/07/04 01:57:25;;;;;;;11.48;2.03;;;;;;;-145.67;100.00;66521.78;4975920;28;20091;-76
2022/07/04 02:02:36;;;;;;;11.88;2.05;;;;;;;-145.67;100.00;66521.78;5013278;28;20034;-76
2022/07/04 02:05:04;;;;;;;12.82;2.22;;;;;;;-145.67;100.00;66521.78;5000094;28;20477;-77
2022/07/04 02:07:30;;;;;;;13.25;2.25;;;;;;;-145.67;100.00;66521.78;5000921;28;20389;-77
2022/07/04 02:09:56;;;;;;;9.57;2.15;;;;;;;-145.67;100.00;66521.78;5002456;28;20095;-77
2022/07/04 02:15:06;;;;;;;12.07;2.08;;;;;;;-145.67;100.00;66521.78;5002735;28;20084;-76
2022/07/04 02:17:33;;;;;;;11.05;2.13;;;;;;;-145.67;100.00;66521.78;4987758;28;20032;-76
2022/07/04 02:19:58;;;;;;;9.63;2.13;;;;;;;-145.67;100.00;66521.78;5002868;28;20044;-76
2022/07/04 02:22:27;;;;;;;10.88;2.20;;;;;;;-145.67;100.00;66521.78;5000976;28;20604;-76
2022/07/04 02:24:52;;;;;;;15.35;2.85;;;;;;;-145.67;100.00;66521.78;5002228;28;20053;-77
2022/07/04 02:27:18;;;;;;;10.80;2.40;;;;;;;-145.67;100.00;66521.78;5000170;28;20037;-75
2022/07/04 02:29:43;;;;;;;15.63;2.60;;;;;;;-145.67;100.00;66521.78;5013150;28;20255;-77
2022/07/04 02:32:09;;;;;;;11.20;2.45;;;;;;;-145.67;100.00;66521.78;5003817;28;20076;-75
2022/07/04 02:34:35;;;;;;;11.85;2.70;;;;;;;-145.67;100.00;66521.78;5001845;28;20382;-76
2022/07/04 02:37:00;;;;;;;11.18;3.17;;;;;;;-145.67;100.00;66521.78;5001596;28;20029;-77
2022/07/04 02:39:26;;;;;;;10.75;2.17;;;;;;;-145.67;100.00;66521.78;4999948;28;20155;-76
2022/07/04 02:41:51;;;;;;;12.50;2.55;;;;;;;-145.67;100.00;66521.78;4999370;28;20037;-77
2022/07/04 02:44:17;;;;;;;9.35;2.10;;;;;;;-145.67;100.00;66521.78;5000652;28;20628;-77
2022/07/04 02:46:42;;;;;;;11.23;2.25;;;;;;;-145.67;100.00;66521.78;5000399;28;20111;-76
2022/07/04 02:49:08;;;;;;;12.20;2.53;;;;;;;-145.67;100.00;66521.78;5001341;28;20037;-76
2022/07/04 02:51:34;;;;;;;14.07;3.00;;;;;;;-145.67;100.00;66521.78;5016149;28;20135;-76
2022/07/04 02:53:59;;;;;;;17.50;2.80;;;;;;;-145.67;100.00;66521.78;4993420;28;20034;-78
2022/07/04 02:56:26;;;;;;;10.68;2.92;;;;;;;-145.67;100.00;66521.78;5000036;28;20032;-77
2022/07/04 02:58:52;;;;;;;12.57;2.50;;;;;;;-145.67;100.00;66521.78;4987773;28;20080;-76
2022/07/04 03:01:19;;;;;;;12.98;2.75;;;;;;;-145.67;100.00;66521.78;5001703;28;20124;-77
2022/07/04 03:03:45;;;;;;;15.85;3.03;;;;;;;-145.67;100.00;66521.78;4976974;28;20548;-77
2022/07/04 03:06:10;;;;;;;14.50;3.15;;;;;;;-145.67;100.00;66521.78;5000335;28;20199;-76
2022/07/04 03:08:36;;;;;;;17.75;3.45;;;;;;;-145.67;100.00;66521.78;4984813;28;20094;-72
2022/07/04 03:11:02;;;;;;;15.98;3.22;;;;;;;-145.67;100.00;66521.78;5013403;28;20107;-74
2022/07/04 03:13:28;;;;;;;19.48;3.20;;;;;;;-145.67;100.00;66521.78;4999143;28;20060;-74
2022/07/04 03:15:53;;;;;;;15.95;3.20;;;;;;;-145.67;100.00;66521.78;4988943;28;20052;-73
2022/07/04 03:18:19;;;;;;;19.80;3.40;;;;;;;-145.67;100.00;66521.78;4999599;28;20482;-73
2022/07/04 03:20:47;;;;;;;24.38;3.50;;;;;;;-145.67;100.00;66521.78;4999787;28;20040;-74
2022/07/04 03:23:12;;;;;;;16.83;3.78;;;;;;;-145.67;100.00;66521.78;5000050;28;20033;-74
2022/07/04 03:25:39;;;;;;;19.65;3.47;;;;;;;-145.67;100.00;66521.78;5002019;28;20068;-75
2022/07/04 03:28:05;;;;;;;12.88;2.85;;;;;;;-145.67;100.00;66521.78;4990881;28;20043;-74
2022/07/04 03:30:31;;;;;;;14.15;2.72;;;;;;;-145.67;100.00;66521.78;5002351;28;20040;-74
2022/07/04 03:32:57;;;;;;;18.58;3.00;;;;;;;-145.67;100.00;66521.78;4999819;28;20053;-73
2022/07/04 03:35:22;;;;;;;16.92;3.25;;;;;;;-145.67;100.00;66521.78;4999954;28;20033;-73
2022/07/04 03:37:51;;;;;;;17.88;2.83;;;;;;;-145.67;100.00;66521.78;4989878;28;20037;-74
2022/07/04 03:40:17;;;;;;;15.32;2.72;;;;;;;-145.67;100.00;66521.78;5000933;28;20133;-74
2022/07/04 03:42:44;;;;;;;13.98;2.85;;;;;;;-145.67;100.00;66521.78;5002217;28;20034;-74
2022/07/04 03:45:10;;;;;;;15.50;2.90;;;;;;;-145.67;100.00;66521.78;5001542;28;20550;-74
2022/07/04 03:47:35;;;;;;;14.05;3.25;;;;;;;-145.67;100.00;66521.78;5002766;28;20037;-74
2022/07/04 03:50:01;;;;;;;10.68;3.10;;;;;;;-145.67;100.00;66521.78;5004463;28;20037;-78
2022/07/04 03:52:27;;;;;;;14.60;2.90;;;;;;;-145.67;100.00;66521.78;5005837;28;20214;-77
2022/07/04 03:54:55;;;;;;;11.60;2.80;;;;;;;-145.67;100.00;66521.78;5000526;28;20041;-77
2022/07/04 03:57:20;;;;;;;14.95;3.20;;;;;;;-145.67;100.00;66521.78;5001049;28;20414;-77
2022/07/04 03:59:45;;;;;;;9.32;2.50;;;;;;;-145.67;100.00;66521.78;4999317;28;20101;-77
2022/07/04 04:02:11;;;;;;;9.63;2.63;;;;;;;-145.67;100.00;66521.78;4998754;28;20030;-78
2022/07/04 04:07:23;;;;;;;15.88;2.90;;;;;;;-145.67;100.00;66521.78;4988885;28;20070;-77
2022/07/04 04:09:49;;;;;;;11.13;2.80;;;;;;;-145.67;100.00;66521.78;4998160;28;20438;-78
2022/07/04 04:12:15;;;;;;;8.63;2.58;;;;;;;-145.67;100.00;66521.78;4999644;28;20207;-78
2022/07/04 04:14:40;;;;;;;8.98;2.60;;;;;;;-145.67;100.00;66521.78;5000851;28;20038;-77
2022/07/04 04:17:08;;;;;;;11.35;2.78;;;;;;;-145.67;100.00;66521.78;4998709;28;20041;-78
2022/07/04 04:19:33;;;;;;;12.57;2.90;;;;;;;-145.67;100.00;66521.78;5003254;28;20030;-77
2022/07/04 04:21:59;;;;;;;10.23;2.80;;;;;;;-145.67;100.00;66521.78;5002042;28;20742;-77
2022/07/04 04:24:24;;;;;;;9.52;2.60;;;;;;;-145.67;100.00;66521.78;5013234;28;20113;-76
2022/07/04 04:26:50;;;;;;;11.05;2.97;;;;;;;-145.67;100.00;66521.78;4983235;28;20045;-76
2022/07/04 04:29:18;;;;;;;6.00;2.40;;;;;;;-145.67;100.00;66521.78;4998539;28;20036;-77
2022/07/04 04:31:43;;;;;;;6.22;2.35;;;;;;;-145.67;100.00;66521.78;5012120;28;20042;-77
2022/07/04 04:34:09;;;;;;;9.52;2.60;;;;;;;-145.67;100.00;66521.78;4999784;28;20033;-77
2022/07/04 04:36:35;;;;;;;5.30;2.88;;;;;;;-145.67;100.00;66521.78;4997018;28;20029;-77
2022/07/04 04:39:00;;;;;;;9.70;2.60;;;;;;;-145.67;100.00;66521.78;5003804;28;20449;-76
2022/07/04 04:41:28;;;;;;;8.80;2.05;;;;;;;-145.67;100.00;66521.78;4989943;28;20033;-77
2022/07/04 04:43:54;;;;;;;5.80;2.20;;;;;;;-145.67;100.00;66521.78;5003259;28;20785;-77
2022/07/04 04:46:20;;;;;;;7.65;2.58;;;;;;;-145.67;100.00;66521.78;5001787;28;20060;-78
2022/07/04 04:48:48;;;;;;;7.18;2.47;;;;;;;-145.67;100.00;66521.78;5017958;28;20125;-76
2022/07/04 04:51:14;;;;;;;5.72;2.22;;;;;;;-145.67;100.00;66521.78;5003259;28;20048;-76
2022/07/04 04:53:39;;;;;;;7.95;2.58;;;;;;;-145.67;100.00;66521.78;5004902;28;20391;-76
2022/07/04 04:56:04;;;;;;;6.72;2.35;;;;;;;-145.67;100.00;66521.78;4983258;28;20040;-77
2022/07/04 04:58:30;;;;;;;4.20;2.10;;;;;;;-145.67;100.00;66521.78;4988592;28;20060;-77
2022/07/04 05:00:57;;;;;;;7.07;2.05;;;;;;;-145.67;100.00;66521.78;5005221;28;20643;-77
2022/07/04 05:03:23;;;;;;;5.13;2.00;;;;;;;-145.67;100.00;66521.78;5018704;28;20041;-77
2022/07/04 05:05:51;;;;;;;4.78;1.83;;;;;;;-145.67;100.00;66521.78;5004821;28;20080;-77
2022/07/04 05:08:16;;;;;;;7.28;1.80;;;;;;;-145.67;100.00;66521.78;5005841;28;20034;-78
2022/07/04 05:10:42;;;;;;;4.10;1.63;;;;;;;-145.67;100.00;66521.78;5003141;28;20071;-74
2022/07/04 05:13:10;;;;;;;5.63;1.85;;;;;;;-145.67;100.00;66521.78;5001274;28;20060;-73
2022/07/04 05:15:36;;;;;;;4.25;1.80;;;;;;;-145.67;100.00;66521.78;4987474;28;20034;-73
2022/07/04 05:18:01;;;;;;;7.40;1.60;;;;;;;-145.67;100.00;66521.78;5002460;28;20101;-74
2022/07/04 05:20:26;;;;;;;3.38;1.50;;;;;;;-145.67;100.00;66521.78;5002727;28;20041;-73
2022/07/04 05:22:52;;;;;;;4.03;1.42;;;;;;;-145.67;100.00;66521.78;4982254;28;20283;-74
2022/07/04 05:25:17;;;;;;;5.03;1.25;;;;;;;-145.67;100.00;66521.78;5000200;28;20048;-73
2022/07/04 05:27:43;;;;;;;5.40;1.38;;;;;;;-145.67;100.00;66521.78;4985553;28;20033;-72
2022/07/04 05:30:09;;;;;;;7.30;1.73;;;;;;;-145.67;100.00;66521.78;5003200;28;20030;-72
2022/07/04 05:32:38;;;;;;;6.30;1.30;;;;;;;-145.67;100.00;66521.78;5003827;28;20085;-73
2022/07/04 05:35:04;;;;;;;4.93;1.20;;;;;;;-145.67;100.00;66521.78;5014369;28;20030;-73
2022/07/04 05:37:29;;;;;;;5.82;1.40;;;;;;;-145.67;100.00;66521.78;4999021;28;20083;-73
2022/07/04 05:39:55;;;;;;;6.10;1.40;;;;;;;-145.67;100.00;66521.78;4988291;28;20041;-73
2022/07/04 05:42:21;;;;;;;4.40;1.30;;;;;;;-145.67;100.00;66521.78;5000374;28;20107;-76
2022/07/04 05:44:46;;;;;;;3.30;1.38;;;;;;;-145.67;100.00;66521.78;5002552;28;20041;-75
2022/07/04 05:47:12;;;;;;;6.03;1.45;;;;;;;-145.67;100.00;66521.78;5000357;28;20033;-78
2022/07/04 05:49:37;;;;;;;5.90;1.48;;;;;;;-145.67;100.00;66521.78;4998772;28;20037;-75
2022/07/04 05:52:03;;;;;;;3.28;1.33;;;;;;;-145.67;100.00;66521.78;5000087;28;20041;-76
2022/07/04 05:54:29;;;;;;;3.50;1.50;;;;;;;-145.67;100.00;66521.78;4988979;28;20512;-75
2022/07/04 05:56:56;;;;;;;6.45;1.65;;;;;;;-145.67;100.00;66521.78;5001576;28;20738;-78
2022/07/04 05:59:22;;;;;;;5.03;1.50;;;;;;;-145.67;100.00;66521.78;5003192;28;20038;-77
2022/07/04 06:01:47;;;;;;;5.00;1.25;;;;;;;-145.67;100.00;66521.78;4997575;28;20040;-74
2022/07/04 06:04:13;;;;;;;2.78;1.40;;;;;;;-145.67;100.00;66521.78;5012358;28;20529;-75
2022/07/04 06:06:39;;;;;;;2.75;1.30;;;;;;;-145.67;100.00;66521.78;5000488;28;20368;-74
2022/07/04 06:09:04;;;;;;;5.20;1.50;;;;;;;-145.67;100.00;66521.78;5000157;28;20445;-74
2022/07/04 06:11:30;;;;;;;6.53;1.30;;;;;;;-145.67;100.00;66521.78;5000856;28;20437;-74
2022/07/04 06:13:58;;;;;;;4.07;1.30;;;;;;;-145.67;100.00;66521.78;4969986;28;20038;-75
2022/07/04 06:16:25;;;;;;;4.70;1.45;;;;;;;-145.67;100.00;66521.78;4997634;28;20414;-74
2022/07/04 06:18:51;;;;;;;5.63;1.80;;;;;;;-145.67;100.00;66521.78;4999564;28;20037;-73
2022/07/04 06:21:16;;;;;;;3.13;1.30;;;;;;;-145.67;100.00;66521.78;5003210;28;21841;-75
2022/07/04 06:23:41;;;;;;;4.82;1.38;;;;;;;-145.67;100.00;66521.78;4985040;28;20619;-75
2022/07/04 06:26:09;;;;;;;4.22;1.40;;;;;;;-145.67;100.00;66521.78;5004585;28;20055;-75
2022/07/04 06:28:37;;;;;;;5.03;1.55;;;;;;;-145.67;100.00;66521.78;5000307;28;20025;-73
2022/07/04 06:31:03;;;;;;;5.68;1.38;;;;;;;-145.67;100.00;66521.78;5006467;28;20696;-74
2022/07/04 06:33:28;;;;;;;3.58;1.40;;;;;;;-145.67;100.00;66521.78;5000146;28;20704;-74
2022/07/04 06:35:58;;;;;;;6.57;1.50;;;;;;;-145.67;100.00;66521.78;5000926;28;20033;-75
2022/07/04 06:38:25;;;;;;;4.70;1.27;;;;;;;-145.67;100.00;66521.78;5002420;28;22277;-74
2022/07/04 06:40:53;;;;;;;7.10;1.40;;;;;;;-145.67;100.00;66521.78;5004937;28;20228;-76
2022/07/04 06:43:19;;;;;;;4.88;1.20;;;;;;;-145.67;100.00;66521.78;5008674;28;20555;-74
2022/07/04 06:45:45;;;;;;;6.40;1.55;;;;;;;-145.67;100.00;66521.78;4999566;28;20034;-75
2022/07/04 06:48:10;;;;;;;2.67;1.20;;;;;;;-145.67;100.00;66521.78;4980124;28;20326;-74
2022/07/04 06:50:36;;;;;;;3.63;1.33;;;;;;;-145.67;100.00;66521.78;5007044;28;20399;-72
2022/07/04 06:53:04;;;;;;;5.10;1.30;;;;;;;-145.67;100.00;66521.78;5000584;28;20049;-74
2022/07/04 06:55:32;;;;;;;3.95;1.30;;;;;;;-145.67;100.00;66521.78;4989302;28;20034;-77
2022/07/04 06:58:00;;;;;;;4.60;1.30;;;;;;;-145.67;100.00;66521.78;5002006;28;20029;-73
2022/07/04 07:00:30;;;;;;;3.70;1.17;;;;;;;-145.67;100.00;66521.78;5000707;28;20204;-78
2022/07/04 07:02:57;;;;;;;4.38;1.15;;;;;;;-145.67;100.00;66521.78;4999597;28;20045;-76
2022/07/04 07:05:24;;;;;;;3.28;1.00;;;;;;;-145.67;100.00;66521.78;4998412;28;20616;-76
2022/07/04 07:07:50;;;;;;;3.42;1.23;;;;;;;-145.67;100.00;66521.78;4999330;28;20058;-77
2022/07/04 07:10:19;;;;;;;2.67;1.10;;;;;;;-145.67;100.00;66521.78;4998327;28;20108;-77
2022/07/04 07:12:45;;;;;;;7.82;1.40;;;;;;;-145.67;100.00;66521.78;5002460;28;20108;-74
2022/07/04 07:15:10;;;;;;;6.72;1.58;;;;;;;-145.67;100.00;66521.78;4997134;28;20026;-79
2022/07/04 07:17:36;;;;;;;5.82;1.45;;;;;;;-145.67;100.00;66521.78;4998945;28;20320;-74
2022/07/04 07:20:02;;;;;;;4.13;1.30;;;;;;;-145.67;100.00;66521.78;5002974;28;20068;-73
2022/07/04 07:22:28;;;;;;;3.45;1.20;;;;;;;-145.67;100.00;66521.78;5003610;28;20052;-74
2022/07/04 07:24:53;;;;;;;6.18;1.58;;;;;;;-145.67;100.00;66521.78;5001984;28;20096;-74
2022/07/04 07:27:21;;;;;;;3.38;1.35;;;;;;;-145.67;100.00;66521.78;4997468;28;20095;-74
2022/07/04 07:29:47;;;;;;;5.50;1.20;;;;;;;-145.67;100.00;66521.78;5000475;28;20293;-73
2022/07/04 07:32:14;;;;;;;2.88;1.20;;;;;;;-145.67;100.00;66521.78;4999768;28;20409;-73
2022/07/04 07:34:40;;;;;;;4.82;1.10;;;;;;;-145.67;100.00;66521.78;5002561;28;21493;-73
2022/07/04 07:37:08;;;;;;;4.72;1.60;;;;;;;-145.67;100.00;66521.78;5012249;28;20414;-75
2022/07/04 07:39:34;;;;;;;5.80;1.50;;;;;;;-145.67;100.00;66521.78;5002310;28;20041;-74
2022/07/04 07:41:59;;;;;;;4.65;1.17;;;;;;;-145.67;100.00;66521.78;5014622;28;20038;-72
2022/07/04 07:44:25;;;;;;;5.32;1.38;;;;;;;-145.67;100.00;66521.78;5007122;28;20104;-77
2022/07/04 07:46:53;;;;;;;6.03;1.30;;;;;;;-145.67;100.00;66521.78;5009740;28;20079;-78
2022/07/04 07:49:18;;;;;;;4.40;1.30;;;;;;;-145.67;100.00;66521.78;5007912;28;20039;-78
2022/07/04 07:51:44;;;;;;;4.20;1.50;;;;;;;-145.67;100.00;66521.78;5015337;28;20044;-76
2022/07/04 07:54:13;;;;;;;3.00;1.30;;;;;;;-145.67;100.00;66521.78;5018296;28;20088;-76
2022/07/04 07:56:38;;;;;;;4.22;1.42;;;;;;;-145.67;100.00;66521.78;5021274;28;20108;-76
2022/07/04 07:59:06;;;;;;;5.90;1.70;;;;;;;-145.67;100.00;66521.78;5023577;28;20175;-76
2022/07/04 08:01:32;;;;;;;4.55;1.30;;;;;;;-145.67;100.00;66521.78;5028857;28;20043;-76
2022/07/04 08:06:45;;;;;;;4.88;1.30;;;;;;;-145.67;100.00;66521.78;5021734;28;20044;-76
2022/07/04 08:09:14;;;;;;;6.32;1.60;;;;;;;-145.67;100.00;66521.78;5019285;28;20041;-75
2022/07/04 08:11:42;;;;;;;3.38;1.23;;;;;;;-145.67;100.00;66521.78;5015615;28;20597;-75
2022/07/04 08:14:07;;;;;;;4.40;1.50;;;;;;;-145.67;100.00;66521.78;5038326;28;20029;-75
2022/07/04 08:16:33;;;;;;;4.40;1.42;;;;;;;-145.67;100.00;66521.78;5025749;28;20029;-76
2022/07/04 08:18:59;;;;;;;5.78;1.30;;;;;;;-145.67;100.00;66521.78;5014288;28;20547;-77
2022/07/04 08:21:24;;;;;;;3.30;1.20;;;;;;;-145.67;100.00;66521.78;5011082;28;20041;-75
2022/07/04 08:23:52;;;;;;;4.32;1.30;;;;;;;-145.67;100.00;66521.78;5009083;28;20037;-75
2022/07/04 08:26:20;;;;;;;3.67;1.58;;;;;;;-145.67;100.00;66521.78;5013205;28;20386;-76
2022/07/04 08:28:46;;;;;;;5.20;1.40;;;;;;;-145.67;100.00;66521.78;5019325;28;20026;-74
2022/07/04 08:31:12;;;;;;;5.93;1.38;;;;;;;-145.67;100.00;66521.78;5019838;28;20528;-76
2022/07/04 08:33:38;;;;;;;6.43;1.40;;;;;;;-145.67;100.00;66521.78;5018452;28;20388;-75
2022/07/04 08:36:04;;;;;;;4.60;1.27;;;;;;;-145.67;100.00;66521.78;5019316;28;20030;-75
2022/07/04 08:38:30;;;;;;;3.60;1.02;;;;;;;-145.67;100.00;66521.78;5013544;28;20051;-76
2022/07/04 08:40:59;;;;;;;5.28;1.35;;;;;;;-145.67;100.00;66521.78;4997326;28;20626;-75
2022/07/04 08:43:29;;;;;;;4.55;1.17;;;;;;;-145.67;100.00;66521.78;5016665;28;20048;-77
2022/07/04 08:45:54;;;;;;;4.65;1.27;;;;;;;-145.67;100.00;66521.78;5012250;28;21663;-75
2022/07/04 08:48:24;;;;;;;5.00;1.38;;;;;;;-145.67;100.00;66521.78;5015792;28;20033;-77
2022/07/04 08:50:54;;;;;;;2.67;1.08;;;;;;;-145.67;100.00;66521.78;5020808;28;20049;-78
2022/07/04 08:53:24;;;;;;;7.18;1.10;;;;;;;-145.67;100.00;66521.78;5013190;28;20127;-77
2022/07/04 08:58:34;;;;;;;5.45;1.00;;;;;;;-145.67;100.00;66521.78;5006772;28;20037;-72
2022/07/04 09:01:07;;;;;;;3.45;1.17;;;;;;;-145.67;100.00;66521.78;5005168;28;20038;-72
2022/07/04 09:03:35;;;;;;;3.75;1.33;;;;;;;-145.67;100.00;66521.78;4997164;28;20033;-72
2022/07/04 09:06:01;;;;;;;5.30;1.10;;;;;;;-145.67;100.00;66521.78;5000771;28;20081;-73
2022/07/04 09:08:27;;;;;;;6.28;1.27;;;;;;;-145.67;100.00;66521.78;5006128;28;20037;-72
2022/07/04 09:10:53;;;;;;;5.97;1.50;;;;;;;-145.67;100.00;66521.78;5001927;28;20083;-73
2022/07/04 09:13:19;;;;;;;7.53;1.63;;;;;;;-145.67;100.00;66521.78;5002531;28;20061;-74
2022/07/04 09:15:51;;;;;;;6.07;1.10;;;;;;;-145.67;100.00;66521.78;5001639;28;20045;-73
2022/07/04 09:18:26;;;;;;;4.45;1.20;;;;;;;-145.67;100.00;66521.78;5001871;28;20498;-73
2022/07/04 09:21:06;;;;;;;3.38;1.10;;;;;;;-145.67;100.00;66521.78;5005717;28;20038;-74
2022/07/04 09:23:34;;;;;;;5.47;1.20;;;;;;;-145.67;100.00;66521.78;4997468;28;20507;-75
2022/07/04 09:26:06;;;;;;;6.80;1.05;;;;;;;-145.67;100.00;66521.78;5001373;28;20112;-75
2022/07/04 09:28:32;;;;;;;4.22;1.10;;;;;;;-145.67;100.00;66521.78;5005819;28;20463;-76
2022/07/04 09:30:58;;;;;;;5.57;1.20;;;;;;;-145.67;100.00;66521.78;4997849;28;20329;-73
2022/07/04 09:33:44;;;;;;;3.88;1.15;;;;;;;-145.67;100.00;66521.78;4999211;28;20520;-73
2022/07/04 09:36:12;;;;;;;4.85;1.30;;;;;;;-145.67;100.00;66521.78;5001360;28;20064;-74
2022/07/04 09:38:37;;;;;;;4.30;1.10;;;;;;;-145.67;100.00;66521.78;5004870;28;20648;-74
2022/07/04 09:44:00;;;;;;;4.90;1.10;;;;;;;-145.67;100.00;66521.78;5002563;28;20726;-75
2022/07/04 09:46:26;;;;;;;4.90;1.33;;;;;;;-145.67;100.00;66521.78;5001620;28;20128;-76
2022/07/04 09:48:52;;;;;;;6.45;1.20;;;;;;;-145.67;100.00;66521.78;5000580;28;20057;-76
2022/07/04 09:51:39;;;;;;;5.72;1.48;;;;;;;-145.67;100.00;66521.78;4998935;28;20037;-73
2022/07/04 09:54:25;;;;;;;5.80;1.65;;;;;;;-145.67;100.00;66521.78;5000602;28;20061;-76
2022/07/04 09:56:53;;;;;;;4.82;1.40;;;;;;;-145.67;100.00;66521.78;5000333;28;21887;-77
2022/07/04 09:59:20;;;;;;;8.05;1.30;;;;;;;-145.67;100.00;66521.78;4998752;28;20100;-77
2022/07/04 10:01:46;;;;;;;4.45;1.30;;;;;;;-145.67;100.00;66521.78;5013360;28;20038;-74
2022/07/04 10:04:13;;;;;;;5.82;1.73;;;;;;;-145.67;100.00;66521.78;5014682;28;20034;-75
2022/07/04 10:06:40;;;;;;;7.60;1.50;;;;;;;-145.67;100.00;66521.78;4989733;28;20033;-76
2022/07/04 10:09:08;;;;;;;4.40;1.30;;;;;;;-145.67;100.00;66521.78;4980379;28;20085;-83
2022/07/04 10:11:34;;;;;;;4.55;1.17;;;;;;;-145.67;100.00;66521.78;5006367;28;20071;-79
2022/07/04 10:14:00;;;;;;;10.10;1.58;;;;;;;-145.67;100.00;66521.78;5002400;28;20111;-82
2022/07/04 10:16:27;;;;;;;3.55;1.30;;;;;;;-145.67;100.00;66521.78;5003173;28;20052;-78
2022/07/04 10:18:55;;;;;;;4.35;1.27;;;;;;;-145.67;100.00;66521.78;4985805;28;20076;-82
2022/07/04 10:21:23;;;;;;;4.32;1.20;;;;;;;-145.67;100.00;66521.78;5001040;28;20609;-79
2022/07/04 10:23:52;;;;;;;4.50;1.30;;;;;;;-145.67;100.00;66521.78;5000466;28;20054;-81
2022/07/04 10:26:19;;;;;;;4.13;1.15;;;;;;;-145.67;100.00;66521.78;4997496;28;20061;-78
2022/07/04 10:28:47;;;;;;;7.15;1.40;;;;;;;-145.67;100.00;66521.78;5001112;28;21875;-77
2022/07/04 10:31:14;;;;;;;4.40;1.42;;;;;;;-145.67;100.00;66521.78;5000487;28;20057;-84
2022/07/04 10:33:43;;;;;;;8.88;1.63;;;;;;;-145.67;100.00;66521.78;5002009;28;20045;-79
2022/07/04 10:36:20;;;;;;;5.55;1.20;;;;;;;-145.67;100.00;66521.78;5001653;28;20508;-83
2022/07/04 10:38:53;;;;;;;5.63;1.23;;;;;;;-145.67;100.00;66521.78;5002309;28;20087;-90
2022/07/04 10:41:23;;;;;;;4.78;1.45;;;;;;;-145.67;100.00;66521.78;4966064;28;21037;-82
2022/07/04 10:43:48;;;;;;;3.63;1.25;;;;;;;-145.67;100.00;66521.78;5008116;28;20038;-76
2022/07/04 10:46:14;;;;;;;5.38;1.40;;;;;;;-145.67;100.00;66521.78;4989435;28;20041;-80
2022/07/04 10:48:58;;;;;;;3.83;1.08;;;;;;;-145.67;100.00;66521.78;5017899;28;20041;-79
2022/07/04 10:51:42;;;;;;;4.45;1.30;;;;;;;-145.67;100.00;66521.78;5005564;28;20029;-77
2022/07/04 10:54:37;;;;;;;4.80;1.30;;;;;;;-145.67;100.00;66521.78;5000654;28;20050;-79
2022/07/04 10:57:25;;;;;;;4.72;1.25;;;;;;;-145.67;100.00;66521.78;5006395;28;20086;-83
2022/07/04 10:59:54;;;;;;;7.18;1.40;;;;;;;-145.67;100.00;66521.78;5000160;28;20939;-82
2022/07/04 11:02:19;;;;;;;4.75;1.00;;;;;;;-145.67;100.00;66521.78;5006804;28;20117;-80
2022/07/04 11:04:54;;;;;;;4.03;1.10;;;;;;;-145.67;100.00;66521.78;5011807;28;20120;-74
2022/07/04 11:07:40;;;;;;;5.07;1.20;;;;;;;-145.67;100.00;66521.78;4979351;28;22345;-77
2022/07/04 11:10:21;;;;;;;4.70;1.27;;;;;;;-145.67;100.00;66521.78;4983412;28;20450;-83
2022/07/04 11:13:07;;;;;;;2.95;1.15;;;;;;;-145.67;100.00;66521.78;4986729;28;20150;-80
2022/07/04 11:15:32;;;;;;;5.22;1.20;;;;;;;-145.67;100.00;66521.78;5013352;28;21751;-78
2022/07/04 11:18:01;;;;;;;3.95;1.10;;;;;;;-145.67;100.00;66521.78;5002865;28;20025;-77
2022/07/04 11:20:28;;;;;;;6.75;1.38;;;;;;;-145.67;100.00;66521.78;4999383;28;20034;-83
2022/07/04 11:23:06;;;;;;;2.90;1.00;;;;;;;-145.67;100.00;66521.78;5002013;28;21034;-76